Time;durP1;ratioP1;P1;durP2;ratioP2;P2;SDS_P1;SDS_P2;PMS_P1;PMS_P2;Temp;Humidity;BMP_temperature;BMP_pressure;BME280_temperature;BME280_humidity;BME280_pressure;Samples;Min_cycle;Max_cycle;Signal;HPM_P1;HPM_P2
2023/12/17 00:00:52;;;;;;;10.40;6.90;;;9.90;99.90;;;;;;5101103;28;20408;-74
2023/12/17 00:03:18;;;;;;;13.20;7.33;;;9.80;99.90;;;;;;5088215;28;20410;-74
2023/12/17 00:05:44;;;;;;;14.32;7.30;;;9.80;99.90;;;;;;5095859;28;20408;-74
2023/12/17 00:08:09;;;;;;;13.98;6.93;;;9.80;99.90;;;;;;5096125;28;20443;-73
2023/12/17 00:10:35;;;;;;;13.13;6.93;;;9.80;99.90;;;;;;5094352;28;20422;-73
2023/12/17 00:13:00;;;;;;;12.70;7.13;;;9.80;99.90;;;;;;5093944;28;20745;-74
2023/12/17 00:15:26;;;;;;;13.37;7.20;;;9.80;99.90;;;;;;5106712;28;20396;-74
2023/12/17 00:17:52;;;;;;;12.30;7.10;;;9.80;99.90;;;;;;5103293;27;20466;-74
2023/12/17 00:20:17;;;;;;;12.73;7.18;;;9.80;99.90;;;;;;5108539;28;20408;-74
2023/12/17 00:22:43;;;;;;;12.63;7.00;;;9.80;99.90;;;;;;5104172;28;20413;-74
2023/12/17 00:25:08;;;;;;;12.73;6.72;;;9.80;99.90;;;;;;5107354;28;20415;-74
2023/12/17 00:27:34;;;;;;;11.83;6.43;;;9.80;99.90;;;;;;5103198;28;20429;-73
2023/12/17 00:30:00;;;;;;;12.93;6.70;;;9.80;99.90;;;;;;5090095;28;20442;-74
2023/12/17 00:32:25;;;;;;;14.27;6.80;;;9.80;99.90;;;;;;5103299;28;20459;-74
2023/12/17 00:34:51;;;;;;;13.17;6.97;;;9.80;99.90;;;;;;5106529;28;20426;-74
2023/12/17 00:37:17;;;;;;;12.70;7.20;;;9.80;99.90;;;;;;5103338;28;20428;-74
2023/12/17 00:39:42;;;;;;;11.53;6.90;;;9.80;99.90;;;;;;5106315;28;20800;-74
2023/12/17 00:42:08;;;;;;;14.45;7.78;;;9.80;99.90;;;;;;5104649;28;20409;-74
2023/12/17 00:44:33;;;;;;;12.90;7.03;;;9.80;99.90;;;;;;5101156;28;20460;-74
2023/12/17 00:47:00;;;;;;;12.77;7.03;;;9.80;99.90;;;;;;5083185;28;20455;-74
2023/12/17 00:49:25;;;;;;;11.23;6.63;;;9.80;99.90;;;;;;5105784;28;21043;-74
2023/12/17 00:51:51;;;;;;;13.68;7.03;;;9.80;99.90;;;;;;5102446;28;20425;-74
2023/12/17 00:54:16;;;;;;;12.63;6.70;;;9.80;99.90;;;;;;5100375;28;20401;-74
2023/12/17 00:56:42;;;;;;;13.17;7.00;;;9.80;99.90;;;;;;5101240;28;21034;-74
2023/12/17 00:59:08;;;;;;;11.35;6.95;;;9.80;99.90;;;;;;5106733;28;20464;-74
2023/12/17 01:01:33;;;;;;;13.17;7.00;;;9.80;99.90;;;;;;5103860;28;20412;-75
2023/12/17 01:03:59;;;;;;;11.15;7.13;;;9.80;99.90;;;;;;5106719;28;20754;-74
2023/12/17 01:06:24;;;;;;;10.10;6.43;;;9.80;99.90;;;;;;5103947;28;20401;-74
2023/12/17 01:08:50;;;;;;;12.60;6.60;;;9.80;99.90;;;;;;5086619;28;20487;-74
2023/12/17 01:11:16;;;;;;;12.35;6.60;;;9.80;99.90;;;;;;5091435;28;20483;-74
2023/12/17 01:13:41;;;;;;;11.90;6.70;;;9.80;99.90;;;;;;5091941;28;20409;-73
2023/12/17 01:16:07;;;;;;;11.32;6.78;;;9.80;99.90;;;;;;5097104;28;20753;-73
2023/12/17 01:18:33;;;;;;;15.18;7.35;;;9.80;99.90;;;;;;5079209;28;20424;-73
2023/12/17 01:20:59;;;;;;;12.37;7.10;;;9.80;99.90;;;;;;5095577;28;20405;-74
2023/12/17 01:23:25;;;;;;;14.48;6.72;;;9.80;99.90;;;;;;5099210;28;20497;-74
2023/12/17 01:25:51;;;;;;;12.33;6.50;;;9.80;99.90;;;;;;5105171;28;20542;-73
2023/12/17 01:28:17;;;;;;;10.73;6.63;;;9.80;99.90;;;;;;5100613;28;20489;-73
2023/12/17 01:30:43;;;;;;;13.30;6.57;;;9.80;99.90;;;;;;5097413;28;20813;-73
2023/12/17 01:33:08;;;;;;;12.85;7.00;;;9.80;99.90;;;;;;5084287;28;20420;-73
2023/12/17 01:35:34;;;;;;;11.20;6.43;;;9.80;99.90;;;;;;5103519;28;20416;-73
2023/12/17 01:38:00;;;;;;;11.70;6.30;;;9.80;99.90;;;;;;5100864;28;20514;-73
2023/12/17 01:40:25;;;;;;;12.27;6.55;;;9.80;99.90;;;;;;5102516;28;20483;-73
2023/12/17 01:42:55;;;;;;;11.90;6.30;;;9.80;99.90;;;;;;5082991;28;20494;-74
2023/12/17 01:45:21;;;;;;;12.73;6.77;;;9.80;99.90;;;;;;5093918;28;20741;-73
2023/12/17 01:47:47;;;;;;;11.77;6.60;;;9.80;99.90;;;;;;5093904;28;20407;-73
2023/12/17 01:50:13;;;;;;;10.20;6.32;;;9.90;99.90;;;;;;5083536;28;20532;-73
2023/12/17 01:52:39;;;;;;;14.75;6.57;;;9.80;99.90;;;;;;5093822;28;20480;-74
2023/12/17 01:55:06;;;;;;;10.82;6.22;;;9.80;99.90;;;;;;5096112;28;20406;-74
2023/12/17 01:57:31;;;;;;;13.15;6.50;;;9.80;99.90;;;;;;5097613;28;20413;-74
2023/12/17 01:59:57;;;;;;;14.40;7.28;;;9.80;99.90;;;;;;5097071;28;20414;-73
2023/12/17 02:02:23;;;;;;;12.57;6.50;;;9.80;99.90;;;;;;5102182;28;20921;-74
2023/12/17 02:04:50;;;;;;;9.70;6.30;;;9.80;99.90;;;;;;5099998;28;20730;-73
2023/12/17 02:07:16;;;;;;;11.10;6.88;;;9.90;99.90;;;;;;5102385;28;20414;-73
2023/12/17 02:09:42;;;;;;;11.02;6.63;;;9.90;99.90;;;;;;5099241;28;20528;-73
2023/12/17 02:12:14;;;;;;;10.85;6.30;;;9.90;99.90;;;;;;5102756;28;20509;-74
2023/12/17 02:14:40;;;;;;;12.38;6.78;;;9.90;99.90;;;;;;5099116;28;20399;-73
2023/12/17 02:17:06;;;;;;;12.23;6.53;;;9.90;99.90;;;;;;5096900;28;20400;-73
2023/12/17 02:19:31;;;;;;;14.82;6.88;;;9.90;99.90;;;;;;5100387;28;20410;-73
2023/12/17 02:21:57;;;;;;;11.53;6.60;;;9.90;99.90;;;;;;5094752;28;20406;-74
2023/12/17 02:24:23;;;;;;;14.32;6.35;;;9.90;99.90;;;;;;5082069;28;20406;-74
2023/12/17 02:26:48;;;;;;;8.90;5.90;;;9.90;99.90;;;;;;5093379;28;20396;-74
2023/12/17 02:29:14;;;;;;;11.43;6.30;;;9.90;99.90;;;;;;5099402;28;20412;-73
2023/12/17 02:31:39;;;;;;;11.68;6.05;;;9.90;99.90;;;;;;5096302;28;20433;-73
2023/12/17 02:34:05;;;;;;;9.50;6.10;;;9.90;99.90;;;;;;5095961;28;20867;-74
2023/12/17 02:36:31;;;;;;;8.77;5.95;;;9.90;99.90;;;;;;5096062;28;20409;-73
2023/12/17 02:38:56;;;;;;;14.20;6.10;;;9.90;99.90;;;;;;5096428;28;20398;-74
2023/12/17 02:41:22;;;;;;;11.60;6.60;;;9.90;99.90;;;;;;5102486;28;20404;-73
2023/12/17 02:43:48;;;;;;;12.13;6.43;;;9.90;99.90;;;;;;5100249;28;20417;-73
2023/12/17 02:46:14;;;;;;;11.70;6.20;;;9.90;99.90;;;;;;5102514;28;20919;-73
2023/12/17 02:48:41;;;;;;;9.43;6.30;;;9.90;99.90;;;;;;5100657;28;20402;-74
2023/12/17 02:51:06;;;;;;;11.23;6.45;;;9.90;99.90;;;;;;5094070;28;20452;-73
2023/12/17 02:53:32;;;;;;;10.43;5.65;;;9.90;99.90;;;;;;5099261;28;20453;-73
2023/12/17 02:55:59;;;;;;;10.27;5.53;;;9.90;99.90;;;;;;5102154;28;20436;-74
2023/12/17 02:58:25;;;;;;;11.27;6.30;;;9.90;99.90;;;;;;5098830;28;20489;-73
2023/12/17 03:00:51;;;;;;;10.57;5.95;;;9.90;99.90;;;;;;5100079;28;20492;-73
2023/12/17 03:03:16;;;;;;;10.33;5.80;;;9.90;99.90;;;;;;5072603;28;20428;-74
2023/12/17 03:05:42;;;;;;;9.93;5.47;;;9.90;99.90;;;;;;5087428;28;20498;-73
2023/12/17 03:08:07;;;;;;;11.60;5.97;;;9.90;99.90;;;;;;5094433;28;20406;-73
2023/12/17 03:10:33;;;;;;;8.68;5.38;;;9.90;99.90;;;;;;5098582;28;20432;-73
2023/12/17 03:12:59;;;;;;;10.90;5.57;;;9.90;99.90;;;;;;5096253;28;20753;-74
2023/12/17 03:15:24;;;;;;;10.25;5.50;;;9.90;99.90;;;;;;5094415;28;20402;-74
2023/12/17 03:17:50;;;;;;;9.93;5.37;;;9.90;99.90;;;;;;5094311;28;20432;-73
2023/12/17 03:20:16;;;;;;;9.23;5.50;;;9.90;99.90;;;;;;5096687;28;20492;-73
2023/12/17 03:22:42;;;;;;;9.63;5.53;;;9.90;99.90;;;;;;5095255;28;21335;-73
2023/12/17 03:25:08;;;;;;;11.98;5.63;;;10.00;99.90;;;;;;5100628;28;20492;-74
2023/12/17 03:27:33;;;;;;;9.43;5.00;;;9.90;99.90;;;;;;5099310;28;20496;-74
2023/12/17 03:29:59;;;;;;;10.00;5.17;;;10.00;99.90;;;;;;5100696;28;20920;-74
2023/12/17 03:32:25;;;;;;;8.73;4.78;;;9.90;99.90;;;;;;5097905;28;20406;-74
2023/12/17 03:34:50;;;;;;;7.95;4.85;;;10.00;99.90;;;;;;5095150;28;20416;-74
2023/12/17 03:37:16;;;;;;;9.93;4.83;;;10.00;99.90;;;;;;5094214;28;20410;-74
2023/12/17 03:39:42;;;;;;;9.05;5.13;;;9.90;99.90;;;;;;5098425;28;20401;-73
2023/12/17 03:42:07;;;;;;;9.13;4.50;;;9.90;99.90;;;;;;5096982;28;20445;-74
2023/12/17 03:44:33;;;;;;;9.20;4.97;;;9.90;99.90;;;;;;5098365;28;20495;-74
2023/12/17 03:46:59;;;;;;;10.55;5.15;;;9.90;99.90;;;;;;5097250;28;20912;-74
2023/12/17 03:49:24;;;;;;;8.87;4.60;;;9.90;99.90;;;;;;5097745;28;20784;-73
2023/12/17 03:51:50;;;;;;;10.23;4.73;;;9.90;99.90;;;;;;5097152;28;21080;-74
2023/12/17 03:54:16;;;;;;;10.68;5.15;;;9.90;99.90;;;;;;5098714;28;20446;-74
2023/12/17 03:56:46;;;;;;;11.07;5.30;;;9.90;99.90;;;;;;5098320;28;20394;-73
2023/12/17 03:59:12;;;;;;;9.68;5.10;;;9.90;99.90;;;;;;5099758;28;20400;-74
2023/12/17 04:01:46;;;;;;;8.83;4.83;;;9.90;99.90;;;;;;5096274;28;20406;-73
2023/12/17 04:04:13;;;;;;;10.27;5.00;;;9.90;99.90;;;;;;5097671;28;20400;-73
2023/12/17 04:06:42;;;;;;;9.02;4.38;;;9.90;99.90;;;;;;5094478;28;20776;-73
2023/12/17 04:09:08;;;;;;;9.60;4.50;;;9.90;99.90;;;;;;5081178;28;20817;-73
2023/12/17 04:11:34;;;;;;;9.10;4.40;;;9.80;99.90;;;;;;5093134;28;20465;-74
2023/12/17 04:14:00;;;;;;;9.00;4.82;;;9.90;99.90;;;;;;5091738;28;20396;-73
2023/12/17 04:16:26;;;;;;;8.70;4.05;;;9.90;99.90;;;;;;5093190;28;20481;-73
2023/12/17 04:18:51;;;;;;;9.18;4.50;;;9.90;99.90;;;;;;5097266;28;20488;-73
2023/12/17 04:21:17;;;;;;;10.27;4.67;;;9.90;99.90;;;;;;5087515;28;20417;-74
2023/12/17 04:23:44;;;;;;;9.75;4.78;;;9.90;99.90;;;;;;5084752;28;20409;-74
2023/12/17 04:26:11;;;;;;;10.20;4.90;;;9.90;99.90;;;;;;5096435;28;20406;-74
2023/12/17 04:28:37;;;;;;;9.90;4.35;;;9.90;99.90;;;;;;5101330;28;20462;-74
2023/12/17 04:31:02;;;;;;;10.80;5.07;;;9.90;99.90;;;;;;5094874;28;20441;-73
2023/12/17 04:33:28;;;;;;;12.00;5.10;;;9.90;99.90;;;;;;5101236;28;20890;-73
2023/12/17 04:35:53;;;;;;;9.02;4.57;;;9.80;99.90;;;;;;5094740;28;20393;-73
2023/12/17 04:38:19;;;;;;;10.30;4.77;;;9.90;99.90;;;;;;5099538;28;20454;-73
2023/12/17 04:40:47;;;;;;;11.20;4.60;;;9.80;99.90;;;;;;5094151;28;20425;-74
2023/12/17 04:43:13;;;;;;;8.75;4.20;;;9.90;99.90;;;;;;5099817;28;20415;-73
2023/12/17 04:45:39;;;;;;;10.80;4.95;;;9.80;99.90;;;;;;5095065;28;20414;-73
2023/12/17 04:48:04;;;;;;;8.80;4.83;;;9.80;99.90;;;;;;5094413;28;20406;-73
2023/12/17 04:50:31;;;;;;;12.30;5.22;;;9.80;99.90;;;;;;5092914;28;20429;-73
2023/12/17 04:52:57;;;;;;;11.68;5.60;;;9.80;99.90;;;;;;5082911;28;20401;-74
2023/12/17 04:55:23;;;;;;;10.18;5.63;;;9.80;99.90;;;;;;5095552;28;20888;-73
2023/12/17 04:57:48;;;;;;;12.23;6.20;;;9.80;99.90;;;;;;5099375;28;20450;-73
2023/12/17 05:00:14;;;;;;;10.40;5.63;;;9.80;99.90;;;;;;5076885;28;20443;-73
2023/12/17 05:02:40;;;;;;;9.80;5.80;;;9.80;99.90;;;;;;5103075;28;20885;-73
2023/12/17 05:05:06;;;;;;;13.23;6.60;;;9.80;99.90;;;;;;5097561;28;20409;-74
2023/12/17 05:07:31;;;;;;;12.70;6.43;;;9.70;99.90;;;;;;5095734;28;20479;-73
2023/12/17 05:09:57;;;;;;;12.23;6.80;;;9.80;99.90;;;;;;5096833;28;20413;-73
2023/12/17 05:12:23;;;;;;;10.47;6.57;;;9.70;99.90;;;;;;5102459;28;20400;-73
2023/12/17 05:14:48;;;;;;;13.65;7.10;;;9.70;99.90;;;;;;5097337;28;20771;-74
2023/12/17 05:17:14;;;;;;;14.37;6.97;;;9.70;99.90;;;;;;5085072;28;20400;-73
2023/12/17 05:19:39;;;;;;;13.30;7.47;;;9.70;99.90;;;;;;5098304;28;20876;-73
2023/12/17 05:22:05;;;;;;;14.45;7.32;;;9.70;99.90;;;;;;5095405;28;20402;-74
2023/12/17 05:24:31;;;;;;;15.77;7.10;;;9.70;99.90;;;;;;5095191;28;20816;-74
2023/12/17 05:26:56;;;;;;;13.00;7.00;;;9.70;99.90;;;;;;5094016;28;20481;-73
2023/12/17 05:29:22;;;;;;;12.23;6.73;;;9.70;99.90;;;;;;5076613;28;20441;-73
2023/12/17 05:31:47;;;;;;;14.02;7.10;;;9.70;99.90;;;;;;5096160;28;21832;-73
2023/12/17 05:34:13;;;;;;;11.27;7.07;;;9.70;99.90;;;;;;5096076;28;20402;-73
2023/12/17 05:36:38;;;;;;;13.57;7.45;;;9.70;99.90;;;;;;5096070;28;20407;-73
2023/12/17 05:39:04;;;;;;;17.03;7.70;;;9.70;99.90;;;;;;5091020;28;20413;-73
2023/12/17 05:41:30;;;;;;;14.37;7.57;;;9.70;99.90;;;;;;5093532;28;21007;-74
2023/12/17 05:43:55;;;;;;;14.48;7.55;;;9.70;99.90;;;;;;5094083;28;20789;-74
2023/12/17 05:46:21;;;;;;;14.27;7.37;;;9.70;99.90;;;;;;5093093;28;20436;-73
2023/12/17 05:48:46;;;;;;;12.40;7.30;;;9.70;99.90;;;;;;5094973;28;21232;-73
2023/12/17 05:51:12;;;;;;;13.67;7.53;;;9.70;99.90;;;;;;5090802;28;21007;-73
2023/12/17 05:53:37;;;;;;;13.13;7.22;;;9.70;99.90;;;;;;5093299;28;20398;-73
2023/12/17 05:56:03;;;;;;;13.33;7.27;;;9.60;99.90;;;;;;5091186;28;21157;-74
2023/12/17 05:58:29;;;;;;;16.25;7.78;;;9.60;99.90;;;;;;5092213;28;20513;-73
2023/12/17 06:00:56;;;;;;;12.77;7.43;;;9.60;99.90;;;;;;5090240;28;20475;-73
2023/12/17 06:03:23;;;;;;;12.23;7.20;;;9.60;99.90;;;;;;5090301;28;20457;-73
2023/12/17 06:05:49;;;;;;;12.05;8.27;;;9.60;99.90;;;;;;5091457;28;20839;-74
2023/12/17 06:08:14;;;;;;;12.67;8.10;;;9.50;99.80;;;;;;5093105;28;20401;-73
2023/12/17 06:10:40;;;;;;;14.25;8.38;;;9.50;99.90;;;;;;5089338;28;20445;-73
2023/12/17 06:13:06;;;;;;;14.00;7.80;;;9.50;99.80;;;;;;5090537;28;21057;-74
2023/12/17 06:15:31;;;;;;;12.00;7.37;;;9.50;99.90;;;;;;5073494;28;20409;-74
2023/12/17 06:17:57;;;;;;;14.55;7.95;;;9.50;99.90;;;;;;5090854;28;20410;-73
2023/12/17 06:20:25;;;;;;;14.37;8.17;;;9.50;99.80;;;;;;5090555;28;20485;-74
2023/12/17 06:22:52;;;;;;;15.50;8.00;;;9.40;99.80;;;;;;5079916;28;20413;-73
2023/12/17 06:25:17;;;;;;;13.73;8.30;;;9.40;99.80;;;;;;5103464;28;20404;-74
2023/12/17 06:27:43;;;;;;;15.45;8.27;;;9.50;99.80;;;;;;5090370;28;20417;-74
2023/12/17 06:30:09;;;;;;;14.30;7.77;;;9.40;99.70;;;;;;5102995;28;20446;-73
2023/12/17 06:32:34;;;;;;;13.83;7.77;;;9.40;99.70;;;;;;5089802;28;20409;-73
2023/12/17 06:35:00;;;;;;;14.65;7.68;;;9.40;99.70;;;;;;5094302;28;20405;-74
2023/12/17 06:37:26;;;;;;;17.20;8.67;;;9.40;99.70;;;;;;5098119;28;20434;-74
2023/12/17 06:39:51;;;;;;;12.13;8.37;;;9.40;99.70;;;;;;5100283;28;20415;-73
2023/12/17 06:42:17;;;;;;;15.37;8.60;;;9.40;99.70;;;;;;5097018;28;20815;-74
2023/12/17 06:44:42;;;;;;;13.17;9.10;;;9.40;99.60;;;;;;5100011;28;20400;-74
2023/12/17 06:47:08;;;;;;;16.05;9.68;;;9.40;99.60;;;;;;5079640;28;20410;-73
2023/12/17 06:49:36;;;;;;;16.57;10.10;;;9.40;99.40;;;;;;5099962;28;20407;-73
2023/12/17 06:52:02;;;;;;;16.27;10.13;;;9.40;99.50;;;;;;5088767;28;20434;-74
2023/12/17 06:54:27;;;;;;;16.33;10.93;;;9.40;99.40;;;;;;5098665;28;20409;-73
2023/12/17 06:56:53;;;;;;;15.37;10.63;;;9.40;99.30;;;;;;5094718;28;20422;-74
2023/12/17 06:59:19;;;;;;;14.87;10.27;;;9.40;99.40;;;;;;5097522;28;20941;-74
2023/12/17 07:01:44;;;;;;;16.75;9.93;;;9.40;99.40;;;;;;5089004;28;20505;-74
2023/12/17 07:04:10;;;;;;;16.97;10.00;;;9.50;99.20;;;;;;5097934;28;20419;-73
2023/12/17 07:06:36;;;;;;;16.90;9.32;;;9.40;99.10;;;;;;5078194;28;20501;-74
2023/12/17 07:09:02;;;;;;;14.23;9.33;;;9.40;99.00;;;;;;5090494;28;20408;-73
2023/12/17 07:11:27;;;;;;;13.83;9.60;;;9.40;99.00;;;;;;5093591;28;20429;-74
2023/12/17 07:13:53;;;;;;;14.00;9.20;;;9.40;98.80;;;;;;5093714;28;20441;-74
2023/12/17 07:16:23;;;;;;;14.95;9.30;;;9.40;98.60;;;;;;5093025;28;20405;-73
2023/12/17 07:18:49;;;;;;;15.65;8.77;;;9.40;98.70;;;;;;5095516;28;20415;-73
2023/12/17 07:21:15;;;;;;;14.48;8.27;;;9.40;98.70;;;;;;5089055;28;20406;-74
2023/12/17 07:23:41;;;;;;;13.07;7.97;;;9.40;98.80;;;;;;5083835;28;20759;-74
2023/12/17 07:26:06;;;;;;;10.87;7.00;;;9.40;98.80;;;;;;5098023;28;21578;-73
2023/12/17 07:28:32;;;;;;;13.52;7.60;;;9.40;98.90;;;;;;5102837;28;20800;-74
2023/12/17 07:30:58;;;;;;;11.52;7.43;;;9.40;98.90;;;;;;5098065;28;21666;-74
2023/12/17 07:33:23;;;;;;;13.03;7.13;;;9.40;98.90;;;;;;5104143;28;20763;-73
2023/12/17 07:35:49;;;;;;;13.52;7.22;;;9.40;98.90;;;;;;5100041;28;20398;-74
2023/12/17 07:38:14;;;;;;;13.27;7.03;;;9.40;98.90;;;;;;5084014;28;20396;-73
2023/12/17 07:40:40;;;;;;;15.18;6.78;;;9.40;99.00;;;;;;5098990;28;20769;-74
2023/12/17 07:43:07;;;;;;;11.93;6.20;;;9.40;99.00;;;;;;5088080;28;20412;-74
2023/12/17 07:45:33;;;;;;;17.30;7.75;;;9.40;99.00;;;;;;5096047;28;20455;-74
2023/12/17 07:47:59;;;;;;;12.07;6.03;;;9.40;99.00;;;;;;5103981;28;20932;-74
2023/12/17 07:50:25;;;;;;;11.65;6.25;;;9.40;99.10;;;;;;5099763;28;20418;-73
2023/12/17 07:52:51;;;;;;;14.30;6.55;;;9.30;99.10;;;;;;5103627;28;20404;-74
2023/12/17 07:55:17;;;;;;;14.10;6.93;;;9.40;99.20;;;;;;5092204;28;20438;-74
2023/12/17 07:57:42;;;;;;;10.73;6.55;;;9.40;99.10;;;;;;5085732;28;20420;-74
2023/12/17 08:00:11;;;;;;;13.50;6.43;;;9.40;99.20;;;;;;5081773;28;20417;-74
2023/12/17 08:02:37;;;;;;;15.47;7.00;;;9.40;99.10;;;;;;5082838;28;20408;-74
2023/12/17 08:05:05;;;;;;;13.60;7.10;;;9.40;99.10;;;;;;5082890;28;20412;-74
2023/12/17 08:07:31;;;;;;;16.20;7.72;;;9.40;99.10;;;;;;5081414;28;20480;-74
2023/12/17 08:09:58;;;;;;;14.15;7.47;;;9.30;99.20;;;;;;5081879;28;20527;-74
2023/12/17 08:12:23;;;;;;;17.35;8.40;;;9.40;99.20;;;;;;5079509;28;20439;-74
2023/12/17 08:14:49;;;;;;;15.52;7.65;;;9.40;99.20;;;;;;5070946;28;20871;-74
2023/12/17 08:17:15;;;;;;;18.37;8.37;;;9.40;99.30;;;;;;5091336;28;20509;-75
2023/12/17 08:19:42;;;;;;;15.73;8.85;;;9.40;99.30;;;;;;5095132;28;20437;-75
2023/12/17 08:22:11;;;;;;;13.98;8.00;;;9.40;99.40;;;;;;5085558;28;20414;-74
2023/12/17 08:24:37;;;;;;;16.63;7.93;;;9.40;99.30;;;;;;5087651;28;20402;-74
2023/12/17 08:27:03;;;;;;;14.45;7.70;;;9.40;99.30;;;;;;5059764;28;20415;-76
2023/12/17 08:29:29;;;;;;;15.38;7.45;;;9.40;99.30;;;;;;5087720;28;20456;-74
2023/12/17 08:31:57;;;;;;;14.18;7.78;;;9.40;99.30;;;;;;5084635;28;20436;-75
2023/12/17 08:34:29;;;;;;;14.70;8.27;;;9.40;99.30;;;;;;5080021;28;20440;-75
2023/12/17 08:36:56;;;;;;;14.70;7.37;;;9.40;99.30;;;;;;5098919;28;20441;-75
2023/12/17 08:39:23;;;;;;;13.77;7.75;;;9.40;99.30;;;;;;5098749;28;20447;-75
2023/12/17 08:41:52;;;;;;;13.65;7.60;;;9.40;99.20;;;;;;5093258;28;20948;-75
2023/12/17 08:44:22;;;;;;;13.77;7.53;;;9.40;99.30;;;;;;5089385;28;20567;-75
2023/12/17 08:46:48;;;;;;;13.55;7.57;;;9.40;99.30;;;;;;5085714;28;20397;-75
2023/12/17 08:49:14;;;;;;;18.50;8.75;;;9.40;99.20;;;;;;5085059;28;20452;-75
2023/12/17 08:51:40;;;;;;;14.67;8.50;;;9.40;99.10;;;;;;5079279;28;20431;-75
2023/12/17 08:54:05;;;;;;;13.97;8.23;;;9.40;99.20;;;;;;5082376;28;20827;-75
2023/12/17 08:56:31;;;;;;;14.02;8.55;;;9.40;99.20;;;;;;5082897;28;20860;-75
2023/12/17 08:58:57;;;;;;;14.53;8.50;;;9.40;99.00;;;;;;5086192;28;20417;-75
2023/12/17 09:01:22;;;;;;;18.20;8.93;;;9.40;99.10;;;;;;5077817;28;20424;-75
2023/12/17 09:03:48;;;;;;;16.63;8.57;;;9.40;98.90;;;;;;5089154;28;20946;-75
2023/12/17 09:06:14;;;;;;;14.83;8.50;;;9.40;98.90;;;;;;5073788;28;20497;-75
2023/12/17 09:08:39;;;;;;;17.10;9.40;;;9.40;99.00;;;;;;5084680;28;20489;-75
2023/12/17 09:11:05;;;;;;;15.85;9.27;;;9.40;98.90;;;;;;5089924;28;20420;-74
2023/12/17 09:13:31;;;;;;;16.17;8.53;;;9.50;98.80;;;;;;5095181;28;20422;-74
2023/12/17 09:15:56;;;;;;;15.32;9.27;;;9.50;98.90;;;;;;5100054;28;20484;-73
2023/12/17 09:18:22;;;;;;;18.57;9.30;;;9.50;99.00;;;;;;5091718;28;20402;-73
2023/12/17 09:20:47;;;;;;;17.27;9.45;;;9.50;99.00;;;;;;5092801;28;21262;-71
2023/12/17 09:23:13;;;;;;;14.27;9.13;;;9.50;99.10;;;;;;5101678;28;20442;-71
2023/12/17 09:25:39;;;;;;;18.20;9.70;;;9.50;99.10;;;;;;5105077;28;20689;-72
2023/12/17 09:28:04;;;;;;;14.25;9.15;;;9.60;99.10;;;;;;5101096;28;20433;-72
2023/12/17 09:30:30;;;;;;;16.87;9.73;;;9.60;99.20;;;;;;5104543;28;20451;-72
2023/12/17 09:32:55;;;;;;;17.33;10.48;;;9.60;99.10;;;;;;5091980;28;20430;-73
2023/12/17 09:35:21;;;;;;;17.53;11.13;;;9.60;99.10;;;;;;5093899;28;20422;-72
2023/12/17 09:37:47;;;;;;;16.60;10.43;;;9.60;98.80;;;;;;5098204;28;21029;-73
2023/12/17 09:40:14;;;;;;;16.35;11.10;;;9.70;99.00;;;;;;5097127;28;20409;-72
2023/12/17 09:42:43;;;;;;;18.60;12.57;;;9.70;98.90;;;;;;5091766;28;20422;-73
2023/12/17 09:45:14;;;;;;;20.35;13.30;;;9.70;98.70;;;;;;5092764;28;20443;-72
2023/12/17 09:47:41;;;;;;;23.15;14.13;;;9.70;98.80;;;;;;5100502;28;20400;-72
2023/12/17 09:50:08;;;;;;;25.95;14.88;;;9.70;98.60;;;;;;5100314;28;20939;-72
2023/12/17 09:52:39;;;;;;;25.10;14.73;;;9.70;98.70;;;;;;5095255;28;20420;-72
2023/12/17 09:55:05;;;;;;;25.15;14.82;;;9.70;98.80;;;;;;5098181;28;20410;-72
2023/12/17 09:57:31;;;;;;;26.05;15.68;;;9.70;98.70;;;;;;5092805;28;21463;-73
2023/12/17 09:59:56;;;;;;;26.10;14.37;;;9.70;98.80;;;;;;5097771;28;20417;-73
2023/12/17 10:02:22;;;;;;;28.13;16.02;;;9.70;98.80;;;;;;5092847;28;20466;-73
2023/12/17 10:04:47;;;;;;;25.37;15.90;;;9.70;98.80;;;;;;5095240;28;20455;-73
2023/12/17 10:07:13;;;;;;;27.92;15.82;;;9.70;98.80;;;;;;5093671;28;20460;-72
2023/12/17 10:09:39;;;;;;;28.63;16.13;;;9.70;98.90;;;;;;5070529;28;20551;-73
2023/12/17 10:12:05;;;;;;;27.73;14.38;;;9.80;99.10;;;;;;5077442;28;20436;-73
2023/12/17 10:14:31;;;;;;;26.55;13.75;;;9.80;99.00;;;;;;5091575;28;20406;-73
2023/12/17 10:16:58;;;;;;;25.00;14.20;;;9.80;98.90;;;;;;5080334;28;20399;-73
2023/12/17 10:19:24;;;;;;;24.95;14.38;;;9.80;98.80;;;;;;5091015;28;20809;-73
2023/12/17 10:21:50;;;;;;;22.65;12.85;;;9.80;98.80;;;;;;5093129;28;20416;-73
2023/12/17 10:24:17;;;;;;;25.30;14.05;;;9.90;98.70;;;;;;5089351;28;20422;-73
2023/12/17 10:26:44;;;;;;;21.30;12.43;;;9.80;98.40;;;;;;5088204;28;20454;-73
2023/12/17 10:29:14;;;;;;;24.80;12.95;;;9.90;98.50;;;;;;5088822;28;20484;-73
2023/12/17 10:31:41;;;;;;;21.70;12.48;;;9.90;98.10;;;;;;5093646;28;20763;-73
2023/12/17 10:34:18;;;;;;;22.90;12.98;;;9.90;98.20;;;;;;5099572;28;20433;-73
2023/12/17 10:36:47;;;;;;;25.35;12.15;;;9.90;97.70;;;;;;5095082;28;20416;-73
2023/12/17 10:39:14;;;;;;;27.05;12.85;;;9.90;97.80;;;;;;5090084;28;20405;-73
2023/12/17 10:41:41;;;;;;;21.48;12.40;;;9.90;97.80;;;;;;5095270;28;20412;-73
2023/12/17 10:44:12;;;;;;;24.55;12.82;;;9.90;97.70;;;;;;5096801;27;20421;-73
2023/12/17 10:46:43;;;;;;;20.92;11.52;;;9.90;97.40;;;;;;5096069;28;20422;-73
2023/12/17 10:49:12;;;;;;;25.13;12.05;;;9.90;97.30;;;;;;5088767;28;20512;-73
2023/12/17 10:51:43;;;;;;;22.30;11.70;;;9.90;97.20;;;;;;5104491;28;20562;-73
2023/12/17 10:54:11;;;;;;;23.40;11.23;;;10.00;97.00;;;;;;5095888;28;20414;-73
2023/12/17 10:56:50;;;;;;;22.15;11.75;;;10.00;97.00;;;;;;5088373;28;20410;-73
2023/12/17 10:59:24;;;;;;;21.05;11.55;;;9.90;96.90;;;;;;5093827;28;20494;-73
2023/12/17 11:01:55;;;;;;;20.65;12.27;;;10.00;97.00;;;;;;5086167;28;20430;-73
2023/12/17 11:04:22;;;;;;;23.88;12.45;;;10.00;96.50;;;;;;5086125;28;21105;-73
2023/12/17 11:06:47;;;;;;;22.35;13.30;;;9.90;96.40;;;;;;5075644;28;20410;-73
2023/12/17 11:09:17;;;;;;;21.13;13.50;;;10.00;96.00;;;;;;5091183;28;20402;-73
2023/12/17 11:11:46;;;;;;;26.13;14.85;;;10.00;95.80;;;;;;5086444;28;20430;-72
2023/12/17 11:14:13;;;;;;;24.35;15.88;;;9.90;95.70;;;;;;5090882;28;20418;-73
2023/12/17 11:16:39;;;;;;;26.58;17.33;;;9.90;95.60;;;;;;5091598;28;20420;-74
2023/12/17 11:19:05;;;;;;;28.05;17.25;;;10.00;95.60;;;;;;5093601;28;20512;-73
2023/12/17 11:21:32;;;;;;;31.65;20.02;;;9.90;95.30;;;;;;5088391;28;20979;-74
2023/12/17 11:23:58;;;;;;;35.40;19.67;;;9.90;95.10;;;;;;5102847;28;20412;-74
2023/12/17 11:26:24;;;;;;;28.05;19.55;;;10.00;95.10;;;;;;5097554;28;21036;-74
2023/12/17 11:28:49;;;;;;;31.33;19.35;;;10.00;94.70;;;;;;5102374;28;20408;-75
2023/12/17 11:31:15;;;;;;;26.98;18.88;;;9.90;94.80;;;;;;5104573;28;20429;-74
2023/12/17 11:33:42;;;;;;;30.30;20.00;;;10.00;94.60;;;;;;5084066;28;20404;-69
2023/12/17 11:36:10;;;;;;;31.33;20.05;;;10.00;94.10;;;;;;5096883;28;20428;-71
2023/12/17 11:38:36;;;;;;;27.77;19.13;;;10.00;94.40;;;;;;5083588;28;20396;-70
2023/12/17 11:41:05;;;;;;;27.88;18.65;;;10.10;94.30;;;;;;5092528;28;20926;-70
2023/12/17 11:43:31;;;;;;;25.80;18.58;;;10.10;94.10;;;;;;5083690;28;20404;-72
2023/12/17 11:45:57;;;;;;;26.92;19.35;;;10.20;93.90;;;;;;5095683;28;20459;-73
2023/12/17 11:48:24;;;;;;;27.88;20.70;;;10.20;93.60;;;;;;5098962;28;20408;-74
2023/12/17 11:51:01;;;;;;;26.87;19.67;;;10.30;93.50;;;;;;5078637;28;20503;-71
2023/12/17 11:53:27;;;;;;;28.83;19.58;;;10.40;93.30;;;;;;5098188;28;20500;-70
2023/12/17 11:56:01;;;;;;;30.33;19.77;;;10.50;92.80;;;;;;5097058;28;20824;-71
2023/12/17 11:58:28;;;;;;;28.20;19.60;;;10.60;91.90;;;;;;5094448;28;20402;-72
2023/12/17 12:01:05;;;;;;;26.08;17.35;;;10.70;91.90;;;;;;5097053;28;20407;-73
2023/12/17 12:03:31;;;;;;;24.42;16.98;;;10.80;91.40;;;;;;5075821;28;20499;-70
2023/12/17 12:05:59;;;;;;;21.83;15.55;;;10.90;91.00;;;;;;5094553;28;20459;-71
2023/12/17 12:08:26;;;;;;;21.98;16.15;;;10.90;88.20;;;;;;5091287;28;20489;-71
2023/12/17 12:10:52;;;;;;;22.73;15.50;;;10.90;87.70;;;;;;5095124;28;20416;-73
2023/12/17 12:13:18;;;;;;;18.40;13.70;;;11.00;87.80;;;;;;5092008;28;20401;-73
2023/12/17 12:15:44;;;;;;;20.27;14.25;;;11.10;85.00;;;;;;5095162;28;20393;-73
2023/12/17 12:18:22;;;;;;;19.60;13.85;;;11.20;84.50;;;;;;5090238;28;21121;-69
2023/12/17 12:20:48;;;;;;;23.48;14.52;;;11.20;82.20;;;;;;5072642;28;20413;-71
2023/12/17 12:23:14;;;;;;;19.02;13.45;;;11.20;81.30;;;;;;5099068;28;20408;-71
2023/12/17 12:25:40;;;;;;;18.52;13.70;;;11.20;81.30;;;;;;5100993;28;20392;-72
2023/12/17 12:28:14;;;;;;;18.10;14.30;;;11.30;76.60;;;;;;5098117;28;20478;-72
2023/12/17 12:30:40;;;;;;;19.65;14.38;;;11.30;79.90;;;;;;5100542;28;20426;-72
2023/12/17 12:33:13;;;;;;;19.00;13.20;;;11.40;79.30;;;;;;5099762;28;20412;-72
2023/12/17 12:35:42;;;;;;;19.58;12.70;;;11.30;79.20;;;;;;5080544;28;20490;-73
2023/12/17 12:38:24;;;;;;;18.80;13.25;;;11.30;74.70;;;;;;5097550;28;20432;-73